Time;durP1;ratioP1;P1;durP2;ratioP2;P2;SDS_P1;SDS_P2;PMS_P1;PMS_P2;Temp;Humidity;BMP_temperature;BMP_pressure;BME280_temperature;BME280_humidity;BME280_pressure;Samples;Min_cycle;Max_cycle;Signal;HPM_P1;HPM_P2
2022/07/10 00:01:01;;;;;;;4.20;3.80;;;;;;;12.08;75.47;99481.83;430140;1279;61492;-58
2022/07/10 00:11:08;;;;;;;4.10;3.40;;;;;;;12.29;75.68;99473.31;430945;1278;74626;-56
2022/07/10 00:21:14;;;;;;;5.40;4.10;;;;;;;12.40;75.66;99460.37;431654;1277;70155;-57
2022/07/10 00:31:20;;;;;;;5.60;4.30;;;;;;;12.45;75.69;99453.52;448060;1277;71452;-58
2022/07/10 00:41:26;;;;;;;5.30;4.70;;;;;;;12.52;75.75;99439.03;431396;1277;61464;-56
2022/07/10 00:51:33;;;;;;;4.30;3.90;;;;;;;12.52;75.89;99424.05;431847;1277;61822;-57
2022/07/10 01:01:39;;;;;;;6.10;4.30;;;;;;;12.63;76.21;99418.02;434180;1278;74921;-57
2022/07/10 01:11:46;;;;;;;7.90;5.50;;;;;;;12.69;76.28;99416.14;432428;1277;68415;-57
2022/07/10 01:21:52;;;;;;;6.50;4.70;;;;;;;12.76;76.37;99412.46;434829;1279;71089;-55
2022/07/10 01:31:59;;;;;;;4.10;3.70;;;;;;;12.79;76.45;99422.77;432583;1277;61753;-57
2022/07/10 01:42:06;;;;;;;4.00;3.60;;;;;;;12.88;76.72;99418.75;432296;1277;61398;-57
2022/07/10 01:52:12;;;;;;;3.50;3.10;;;;;;;12.85;76.93;99404.94;431534;1277;73647;-56
2022/07/10 02:02:18;;;;;;;3.90;3.50;;;;;;;12.88;77.20;99383.42;431583;1277;68611;-62
2022/07/10 02:12:25;;;;;;;3.70;2.70;;;;;;;12.89;77.37;99380.90;431618;1277;70373;-58
2022/07/10 02:22:31;;;;;;;3.50;2.90;;;;;;;12.88;77.69;99375.02;431888;1277;61404;-56
2022/07/10 02:32:36;;;;;;;3.20;2.40;;;;;;;12.90;78.00;99386.11;431479;1277;61410;-61
2022/07/10 02:42:42;;;;;;;3.10;2.40;;;;;;;12.89;78.31;99382.80;431253;1278;73897;-57
2022/07/10 02:52:48;;;;;;;3.80;3.40;;;;;;;12.83;78.56;99382.24;431766;1279;68537;-57
2022/07/10 03:02:54;;;;;;;3.60;3.30;;;;;;;12.82;78.86;99394.27;431953;1279;71588;-55
2022/07/10 03:13:00;;;;;;;3.60;3.10;;;;;;;12.78;78.90;99390.86;432150;1279;62076;-57
2022/07/10 03:23:05;;;;;;;5.60;3.10;;;;;;;12.70;78.87;99382.50;432049;1279;61468;-57
2022/07/10 03:33:14;;;;;;;2.60;2.30;;;;;;;12.72;79.13;99376.02;431905;1277;75085;-58
2022/07/10 03:43:20;;;;;;;3.70;2.50;;;;;;;12.74;79.38;99366.02;431608;1278;69718;-58
2022/07/10 03:53:27;;;;;;;3.50;3.20;;;;;;;12.74;79.51;99348.33;431488;1279;71553;-56
2022/07/10 04:03:32;;;;;;;4.10;3.00;;;;;;;12.68;79.70;99343.16;431795;1279;61439;-57
2022/07/10 04:13:38;;;;;;;3.70;2.70;;;;;;;12.75;79.96;99340.14;431384;1276;62108;-57
2022/07/10 04:23:44;;;;;;;3.40;2.70;;;;;;;13.00;80.15;99345.25;431351;1277;74162;-57
2022/07/10 04:33:50;;;;;;;3.20;2.90;;;;;;;13.11;79.97;99347.07;431401;1277;68558;-57
2022/07/10 04:43:56;;;;;;;3.90;2.70;;;;;;;13.25;79.89;99344.70;431012;1279;71538;-58
2022/07/10 04:54:01;;;;;;;3.90;3.00;;;;;;;13.48;79.56;99342.08;431242;1277;61454;-58
2022/07/10 05:04:08;;;;;;;3.30;2.70;;;;;;;13.55;79.32;99344.51;431627;1277;61516;-58
2022/07/10 05:14:14;;;;;;;3.50;2.20;;;;;;;13.64;79.29;99346.08;431745;1277;75448;-56
2022/07/10 05:24:20;;;;;;;2.90;2.30;;;;;;;13.87;78.67;99350.41;431319;1279;68133;-59
2022/07/10 05:34:26;;;;;;;1.90;1.80;;;;;;;14.79;78.11;99349.29;430870;1281;72807;-57
2022/07/10 05:44:32;;;;;;;3.60;2.10;;;;;;;15.77;74.88;99349.13;430769;1279;61503;-57
2022/07/10 05:54:37;;;;;;;4.00;1.70;;;;;;;16.40;74.10;99348.20;431010;1279;61412;-56
2022/07/10 06:04:43;;;;;;;5.00;1.80;;;;;;;19.48;68.78;99342.84;430324;1279;74561;-56
2022/07/10 06:14:49;;;;;;;1.80;1.10;;;;;;;20.15;66.91;99346.34;430364;1279;67246;-57
2022/07/10 06:24:55;;;;;;;2.40;0.90;;;;;;;23.33;61.46;99343.44;434310;1279;71628;-56
2022/07/10 06:35:01;;;;;;;1.40;1.00;;;;;;;25.42;54.61;99335.73;430877;1279;62175;-59
2022/07/10 06:45:09;;;;;;;4.10;0.90;;;;;;;23.83;52.76;99339.25;438581;1279;61364;-56
2022/07/10 06:55:14;;;;;;;;;;;;;;;20.35;54.82;99339.90;447876;1279;73936;-58
2022/07/10 07:05:19;;;;;;;1.80;0.90;;;;;;;22.31;55.52;99333.31;447838;1278;68220;-57
2022/07/10 07:15:26;;;;;;;1.70;0.80;;;;;;;23.48;49.86;99332.82;446669;1280;71445;-57
2022/07/10 07:25:32;;;;;;;3.30;0.90;;;;;;;22.98;51.39;99341.06;437331;1279;61791;-57
2022/07/10 07:35:38;;;;;;;3.40;1.00;;;;;;;23.90;45.26;99327.80;431059;1279;61396;-60
2022/07/10 07:45:43;;;;;;;2.70;1.00;;;;;;;20.68;49.74;99331.22;431249;1279;74702;-57
2022/07/10 07:55:49;;;;;;;1.90;0.50;;;;;;;20.83;49.99;99334.24;430788;1279;68414;-55
2022/07/10 08:05:55;;;;;;;2.00;1.00;;;;;;;22.81;48.68;99332.09;430189;1279;71626;-56
2022/07/10 08:16:01;;;;;;;1.80;0.50;;;;;;;24.06;45.83;99338.54;430624;1281;61837;-58
2022/07/10 08:26:13;;;;;;;2.60;0.50;;;;;;;23.76;44.50;99342.83;430760;1279;61405;-58
2022/07/10 08:36:19;;;;;;;1.30;0.40;;;;;;;23.45;44.37;99349.55;431273;1280;74854;-57
2022/07/10 08:46:45;;;;;;;2.30;0.50;;;;;;;21.48;44.69;99359.17;431159;1279;67844;-56
2022/07/10 08:56:51;;;;;;;3.50;0.70;;;;;;;19.66;47.31;99359.60;431323;1279;72758;-58
2022/07/10 09:06:57;;;;;;;3.00;0.50;;;;;;;19.24;48.14;99356.28;431297;1281;61771;-58
2022/07/10 09:17:04;;;;;;;4.20;0.60;;;;;;;20.45;47.78;99340.71;431801;1277;61850;-57
2022/07/10 09:27:12;;;;;;;1.30;0.80;;;;;;;19.61;48.41;99370.62;431404;1279;74718;-59
2022/07/10 09:37:27;;;;;;;1.10;0.40;;;;;;;17.08;53.35;99393.89;431582;1278;68390;-63
2022/07/10 09:47:32;;;;;;;1.00;0.40;;;;;;;15.49;56.88;99390.96;431626;1279;73103;-59
2022/07/10 09:57:39;;;;;;;2.70;0.50;;;;;;;16.13;58.02;99379.08;431458;1278;293219;-61
2022/07/10 10:07:46;;;;;;;2.30;0.60;;;;;;;16.83;57.85;99367.95;431637;1277;61735;-58
2022/07/10 10:17:53;;;;;;;2.00;0.50;;;;;;;17.69;57.90;99362.86;432422;1278;75131;-57
2022/07/10 10:28:01;;;;;;;2.30;0.80;;;;;;;19.14;57.18;99356.36;432649;1277;68793;-59
2022/07/10 10:38:07;;;;;;;0.30;0.10;;;;;;;20.39;54.30;99346.79;431842;1278;72590;-60
2022/07/10 10:48:15;;;;;;;1.80;0.60;;;;;;;20.65;51.87;99349.34;432015;1277;61718;-59
2022/07/10 10:58:41;;;;;;;;;;;;;;;20.16;51.82;99344.56;432277;1277;61486;-58
2022/07/10 11:09:00;;;;;;;0.60;0.30;;;;;;;20.04;51.67;99335.53;432435;1277;74864;-59
2022/07/10 11:19:06;;;;;;;1.70;0.50;;;;;;;20.33;50.22;99341.05;431903;1279;68910;-58
2022/07/10 11:29:12;;;;;;;1.20;0.40;;;;;;;17.65;52.25;99354.63;431868;1279;71611;-59
2022/07/10 11:39:18;;;;;;;1.60;0.40;;;;;;;17.15;54.71;99352.36;431638;1279;61402;-55
2022/07/10 11:49:24;;;;;;;1.30;0.30;;;;;;;18.50;52.46;99345.77;431262;1280;61399;-59
2022/07/10 11:59:35;;;;;;;2.00;0.50;;;;;;;18.91;51.69;99348.69;431391;1281;73400;-58
2022/07/10 12:09:41;;;;;;;2.30;0.80;;;;;;;18.84;52.22;99343.91;431397;1281;68617;-59
2022/07/10 12:19:50;;;;;;;2.60;1.10;;;;;;;18.90;52.64;99339.38;431547;1279;70752;-58
2022/07/10 12:30:04;;;;;;;0.80;0.60;;;;;;;19.31;52.93;99329.14;431648;1279;61454;-59
2022/07/10 12:40:12;;;;;;;2.00;0.50;;;;;;;18.97;52.19;99329.41;431810;1279;61479;-59
2022/07/10 12:50:18;;;;;;;3.00;1.10;;;;;;;17.66;55.72;99343.01;431596;1279;73991;-58
2022/07/10 13:00:27;;;;;;;2.30;0.50;;;;;;;18.09;55.85;99340.40;431644;1279;68464;-59
2022/07/10 13:10:32;;;;;;;3.70;2.10;;;;;;;17.93;52.91;99337.35;431962;1281;72677;-59
2022/07/10 13:20:38;;;;;;;5.30;4.20;;;;;;;18.19;52.18;99331.61;431977;1280;61503;-55
2022/07/10 13:30:44;;;;;;;1.40;0.20;;;;;;;18.86;50.85;99323.48;431550;1278;61449;-58
2022/07/10 13:40:50;;;;;;;1.10;0.40;;;;;;;19.28;49.42;99323.80;431436;1278;73513;-60
2022/07/10 13:50:55;;;;;;;1.50;0.60;;;;;;;19.05;47.40;99321.01;431385;1278;69601;-56
2022/07/10 14:01:03;;;;;;;0.50;0.30;;;;;;;19.04;47.74;99319.70;431042;1278;71525;-57
2022/07/10 14:11:09;;;;;;;1.00;0.30;;;;;;;18.76;48.54;99341.95;430927;1277;61617;-57
2022/07/10 14:21:15;;;;;;;2.90;0.70;;;;;;;16.99;53.62;99379.00;430204;1277;61540;-58
2022/07/10 14:31:21;;;;;;;2.00;0.80;;;;;;;15.78;58.06;99405.88;429798;1277;73665;-58
2022/07/10 14:41:28;;;;;;;3.60;0.70;;;;;;;15.61;60.19;99395.87;430267;1277;68048;-58
2022/07/10 14:51:35;;;;;;;3.60;1.00;;;;;;;16.01;61.53;99384.96;429930;1278;73075;-58
2022/07/10 15:01:41;;;;;;;1.70;0.90;;;;;;;16.66;61.11;99389.16;429888;1279;61477;-55
2022/07/10 15:11:48;;;;;;;1.30;0.60;;;;;;;16.75;61.80;99388.11;434328;1277;61600;-56
2022/07/10 15:21:54;;;;;;;3.50;1.30;;;;;;;16.86;62.28;99389.79;430548;1278;73713;-56
2022/07/10 15:32:00;;;;;;;2.80;0.70;;;;;;;17.39;62.46;99396.89;430263;1278;70791;-56
2022/07/10 15:42:07;;;;;;;2.50;1.00;;;;;;;17.58;61.64;99398.10;429918;1279;72575;-56
2022/07/10 15:52:13;;;;;;;2.50;0.60;;;;;;;17.05;61.09;99414.94;442355;1278;62108;-57
2022/07/10 16:02:19;;;;;;;3.60;0.80;;;;;;;15.51;62.39;99438.20;430778;1279;61439;-55
2022/07/10 16:12:25;;;;;;;0.30;0.30;;;;;;;14.62;63.71;99438.48;431546;1277;73609;-57
2022/07/10 16:22:31;;;;;;;1.80;0.60;;;;;;;14.48;64.96;99439.09;433758;1277;68578;-57
2022/07/10 16:32:36;;;;;;;6.30;0.50;;;;;;;14.65;65.32;99439.61;432760;1277;71906;-59
2022/07/10 16:42:42;;;;;;;1.50;0.70;;;;;;;14.86;65.58;99449.70;432201;1277;61417;-58
2022/07/10 16:52:48;;;;;;;1.10;0.60;;;;;;;14.71;66.13;99455.84;432029;1277;61427;-58
2022/07/10 17:02:54;;;;;;;3.00;1.10;;;;;;;14.58;66.81;99451.61;432646;1277;74806;-58
2022/07/10 17:13:01;;;;;;;3.20;1.50;;;;;;;14.85;67.24;99459.63;432350;1277;68513;-56
2022/07/10 17:23:09;;;;;;;2.40;0.60;;;;;;;14.75;67.19;99462.76;432804;1277;71656;-60
2022/07/10 17:33:15;;;;;;;3.10;1.50;;;;;;;14.46;67.30;99472.12;432092;1279;61371;-58
2022/07/10 17:43:21;;;;;;;2.70;1.10;;;;;;;14.33;67.81;99474.31;432738;1277;61434;-61
2022/07/10 17:53:29;;;;;;;4.70;1.10;;;;;;;14.22;68.36;99472.52;432191;1279;73673;-56
2022/07/10 18:03:35;;;;;;;1.80;1.10;;;;;;;14.21;69.81;99475.64;432512;1277;68534;-55
2022/07/10 18:13:41;;;;;;;2.00;1.50;;;;;;;14.08;70.66;99494.56;432491;1277;72777;-55
2022/07/10 18:23:49;;;;;;;3.30;1.30;;;;;;;14.04;71.62;99502.77;431950;1277;61499;-58
2022/07/10 18:44:30;;;;;;;3.10;1.50;;;;;;;13.79;72.70;99531.17;432026;1277;72784;-58
2022/07/10 18:54:36;;;;;;;0.10;0.10;;;;;;;13.37;71.41;99530.84;432116;1277;68478;-57
2022/07/10 19:04:42;;;;;;;1.40;0.40;;;;;;;12.93;70.73;99519.73;431656;1277;71659;-58
2022/07/10 19:14:48;;;;;;;7.00;0.60;;;;;;;12.65;71.34;99522.47;431765;1277;61470;-56
2022/07/10 19:24:54;;;;;;;1.00;0.50;;;;;;;12.30;72.33;99520.25;431944;1277;61401;-57
2022/07/10 19:35:00;;;;;;;1.30;0.80;;;;;;;12.05;73.34;99529.77;431955;1277;73651;-57
2022/07/10 19:45:07;;;;;;;0.60;0.40;;;;;;;11.95;74.03;99529.76;431606;1277;68530;-57
2022/07/10 19:55:13;;;;;;;1.20;0.60;;;;;;;11.80;74.34;99518.34;431378;1279;72909;-58
2022/07/10 20:05:19;;;;;;;1.30;0.50;;;;;;;11.70;75.08;99503.60;432076;1277;62069;-58
2022/07/10 20:15:25;;;;;;;3.30;1.40;;;;;;;11.58;75.48;99500.20;431344;1277;62107;-57
2022/07/10 20:25:51;;;;;;;6.80;3.90;;;;;;;11.37;76.25;99503.04;431318;1278;73491;-58
2022/07/10 20:46:21;;;;;;;7.70;3.80;;;;;;;10.87;77.92;99503.95;431274;1279;71733;-59
2022/07/10 20:56:27;;;;;;;4.20;2.70;;;;;;;10.67;78.69;99514.02;431169;1281;61428;-56
2022/07/10 21:06:33;;;;;;;2.70;2.30;;;;;;;10.54;79.39;99520.62;431712;1279;61499;-57
2022/07/10 21:16:39;;;;;;;4.00;3.50;;;;;;;10.43;80.00;99525.66;430939;1279;73306;-56
2022/07/10 21:26:45;;;;;;;2.90;2.40;;;;;;;10.39;80.46;99532.23;430400;1279;68488;-57
2022/07/10 21:36:51;;;;;;;3.00;2.30;;;;;;;10.37;80.97;99532.16;431163;1279;72763;-57
2022/07/10 21:46:57;;;;;;;3.20;2.40;;;;;;;10.28;81.13;99530.99;431207;1279;61701;-56
2022/07/10 21:57:03;;;;;;;2.20;1.60;;;;;;;10.24;81.61;99531.23;430714;1279;322073;-56
2022/07/10 22:07:09;;;;;;;1.80;1.50;;;;;;;10.14;81.68;99530.66;430446;1279;73642;-56
2022/07/10 22:17:15;;;;;;;2.30;2.00;;;;;;;10.07;82.04;99535.27;430835;1278;68613;-55
2022/07/10 22:27:21;;;;;;;3.40;1.70;;;;;;;9.97;82.24;99536.79;430846;1277;71036;-55
2022/07/10 22:37:27;;;;;;;3.40;2.10;;;;;;;9.89;82.67;99538.12;430493;1277;61415;-58
2022/07/10 22:47:32;;;;;;;5.50;1.80;;;;;;;9.81;82.78;99531.96;430108;1279;61412;-56
2022/07/10 22:57:38;;;;;;;2.90;2.70;;;;;;;9.66;82.88;99524.49;430793;1277;73697;-56
2022/07/10 23:07:44;;;;;;;3.50;1.80;;;;;;;9.52;82.95;99521.70;430927;1279;68492;-56
2022/07/10 23:17:50;;;;;;;2.90;1.90;;;;;;;9.39;83.30;99514.95;431038;1277;71571;-55
2022/07/10 23:27:56;;;;;;;3.40;1.80;;;;;;;9.28;83.34;99516.29;430882;1277;61502;-55
2022/07/10 23:38:02;;;;;;;2.30;1.50;;;;;;;9.15;83.36;99518.61;430627;1277;62733;-57
2022/07/10 23:48:08;;;;;;;3.80;1.40;;;;;;;9.06;83.70;99515.98;437246;1278;76202;-56
2022/07/10 23:58:14;;;;;;;4.00;1.60;;;;;;;8.95;83.57;99512.77;430784;1279;68524;-55
